createdAt,value
2022-08-29T00:00:01.756Z,6.77
2022-08-29T00:02:28.554Z,6.37
2022-08-29T00:04:55.552Z,6.10
2022-08-29T00:07:22.313Z,7.10
2022-08-29T00:09:49.395Z,6.87
2022-08-29T00:12:16.502Z,7.20
2022-08-29T00:14:43.184Z,7.50
2022-08-29T00:17:13.123Z,7.20
2022-08-29T00:19:39.845Z,7.03
2022-08-29T00:22:06.534Z,7.10
2022-08-29T00:24:33.277Z,7.53
2022-08-29T00:27:01.858Z,7.97
2022-08-29T00:29:28.735Z,7.40
2022-08-29T00:31:55.488Z,7.07
2022-08-29T00:34:22.334Z,6.90
2022-08-29T00:36:49.423Z,6.03
2022-08-29T00:39:16.141Z,6.53
2022-08-29T00:41:43.133Z,6.37
2022-08-29T00:44:09.791Z,6.57
2022-08-29T00:46:43.452Z,6.63
2022-08-29T00:49:27.980Z,6.83
2022-08-29T00:51:54.759Z,6.20
2022-08-29T00:54:21.608Z,7.10
2022-08-29T00:56:49.719Z,7.13
2022-08-29T00:59:20.683Z,7.10
2022-08-29T01:01:48.703Z,6.97
2022-08-29T01:04:18.271Z,6.50
2022-08-29T01:06:53.439Z,6.77
2022-08-29T01:09:21.088Z,6.23
2022-08-29T01:12:06.614Z,7.00
2022-08-29T01:14:37.840Z,6.37
2022-08-29T01:17:05.254Z,6.57
2022-08-29T01:19:38.148Z,6.60
2022-08-29T01:22:08.131Z,6.27
2022-08-29T01:24:50.826Z,5.83
2022-08-29T01:27:21.184Z,5.87
2022-08-29T01:29:48.486Z,5.50
2022-08-29T01:32:15.679Z,5.87
2022-08-29T01:37:28.116Z,4.83
2022-08-29T01:39:55.455Z,5.40
2022-08-29T01:42:22.935Z,5.43
2022-08-29T01:44:52.309Z,5.87
2022-08-29T01:47:19.559Z,5.60
2022-08-29T01:49:46.364Z,5.53
2022-08-29T01:52:13.023Z,5.90
2022-08-29T01:54:41.197Z,5.57
2022-08-29T01:57:12.926Z,5.43
2022-08-29T01:59:40.270Z,5.37
2022-08-29T02:02:15.678Z,5.07
2022-08-29T02:04:43.005Z,5.10
2022-08-29T02:07:12.703Z,4.97
2022-08-29T02:09:40.131Z,5.53
2022-08-29T02:12:12.765Z,5.33
2022-08-29T02:14:39.672Z,5.27
2022-08-29T02:17:09.968Z,5.90
2022-08-29T02:19:37.385Z,5.10
2022-08-29T02:22:04.365Z,5.20
2022-08-29T02:24:32.295Z,4.83
2022-08-29T02:26:59.137Z,5.47
2022-08-29T02:29:26.097Z,5.23
2022-08-29T02:31:58.319Z,5.57
2022-08-29T02:34:25.120Z,5.67
2022-08-29T02:36:53.296Z,5.03
2022-08-29T02:39:19.998Z,5.40
2022-08-29T02:41:46.672Z,5.60
2022-08-29T02:44:14.009Z,5.90
2022-08-29T02:46:40.763Z,5.10
2022-08-29T02:49:07.566Z,5.20
2022-08-29T02:51:34.332Z,5.70
2022-08-29T02:54:01.135Z,4.60
2022-08-29T02:56:27.859Z,5.47
2022-08-29T02:58:54.744Z,5.63
2022-08-29T03:01:21.738Z,5.50
2022-08-29T03:03:51.882Z,5.27
2022-08-29T03:06:19.032Z,5.20
2022-08-29T03:08:46.637Z,5.17
2022-08-29T03:11:14.110Z,5.13
2022-08-29T03:13:43.989Z,4.97
2022-08-29T03:16:10.783Z,5.17
2022-08-29T03:18:38.264Z,5.20
2022-08-29T03:21:05.753Z,5.77
2022-08-29T03:23:32.568Z,5.13
2022-08-29T03:28:44.951Z,5.20
2022-08-29T03:31:11.765Z,5.27
2022-08-29T03:33:38.577Z,5.03
2022-08-29T03:36:08.838Z,5.13
2022-08-29T03:38:41.393Z,4.83
2022-08-29T03:41:08.392Z,5.07
2022-08-29T03:43:35.293Z,5.00
2022-08-29T03:46:02.237Z,4.97
2022-08-29T03:51:15.121Z,5.30
2022-08-29T03:53:42.011Z,5.40
2022-08-29T03:56:10.848Z,5.33
2022-08-29T03:58:49.128Z,4.73
2022-08-29T04:01:19.638Z,4.77
2022-08-29T04:06:31.487Z,5.13
2022-08-29T04:08:59.164Z,6.50
2022-08-29T04:11:26.931Z,5.53
2022-08-29T04:13:54.069Z,5.50
2022-08-29T04:16:22.259Z,5.73
2022-08-29T04:18:49.326Z,6.47
2022-08-29T04:21:17.055Z,6.03
2022-08-29T04:23:44.000Z,6.07
2022-08-29T04:26:35.397Z,6.20
2022-08-29T04:29:00.572Z,6.90
2022-08-29T04:31:28.492Z,6.70
2022-08-29T04:33:55.801Z,6.93
2022-08-29T04:36:24.298Z,6.43
2022-08-29T04:38:51.125Z,7.87
2022-08-29T04:41:19.726Z,7.27
2022-08-29T04:43:47.120Z,6.90
2022-08-29T04:46:24.025Z,7.37
2022-08-29T04:49:00.555Z,6.77
2022-08-29T04:51:30.449Z,7.33
2022-08-29T04:53:57.346Z,6.73
2022-08-29T04:56:24.023Z,7.43
2022-08-29T04:58:52.175Z,6.97
2022-08-29T05:01:24.313Z,6.30
2022-08-29T05:04:00.325Z,6.17
2022-08-29T05:06:32.234Z,6.40
2022-08-29T05:09:00.221Z,5.57
2022-08-29T05:11:28.627Z,5.50
2022-08-29T05:13:55.612Z,5.80
2022-08-29T05:16:22.355Z,6.00
2022-08-29T05:18:49.224Z,5.83
2022-08-29T05:21:27.695Z,6.23
2022-08-29T05:23:56.752Z,5.80
2022-08-29T05:26:23.625Z,6.00
2022-08-29T05:28:50.760Z,5.80
2022-08-29T05:31:17.862Z,5.87
2022-08-29T05:33:44.744Z,5.60
2022-08-29T05:36:11.796Z,5.70
2022-08-29T05:38:38.951Z,5.07
2022-08-29T05:41:06.911Z,5.23
2022-08-29T05:43:34.182Z,5.50
2022-08-29T05:46:04.638Z,5.53
2022-08-29T05:48:31.648Z,5.67
2022-08-29T05:51:02.298Z,5.47
2022-08-29T05:53:29.179Z,5.33
2022-08-29T05:55:55.943Z,5.03
2022-08-29T05:58:24.013Z,5.00
2022-08-29T06:00:51.071Z,5.10
2022-08-29T06:03:17.944Z,3.83
2022-08-29T06:05:49.736Z,3.80
2022-08-29T06:08:16.725Z,3.60
2022-08-29T06:10:45.740Z,3.90
2022-08-29T06:13:12.843Z,3.70
2022-08-29T06:15:42.842Z,3.47
2022-08-29T06:18:09.777Z,4.20
2022-08-29T06:20:37.820Z,3.57
2022-08-29T06:23:04.683Z,7.47
2022-08-29T06:25:39.752Z,3.40
2022-08-29T06:28:12.641Z,3.00
2022-08-29T06:30:50.561Z,3.63
2022-08-29T06:33:18.238Z,2.97
2022-08-29T06:35:45.154Z,3.00
2022-08-29T06:38:14.328Z,3.57
2022-08-29T06:40:42.236Z,2.60
2022-08-29T06:43:09.021Z,2.80
2022-08-29T06:45:40.147Z,2.67
2022-08-29T06:48:07.555Z,2.60
2022-08-29T06:50:41.238Z,2.60
2022-08-29T06:53:27.551Z,2.40
2022-08-29T06:55:59.521Z,2.63
2022-08-29T06:58:26.637Z,2.07
2022-08-29T07:00:53.989Z,2.03
2022-08-29T07:03:23.303Z,1.97
2022-08-29T07:05:54.775Z,2.20
2022-08-29T07:08:21.674Z,1.90
2022-08-29T07:10:48.465Z,2.00
2022-08-29T07:13:16.361Z,1.90
2022-08-29T07:15:43.581Z,1.80
2022-08-29T07:18:10.562Z,2.17
2022-08-29T07:20:42.829Z,2.07
2022-08-29T07:23:10.083Z,1.80
2022-08-29T07:28:23.950Z,1.30
2022-08-29T07:30:50.850Z,1.33
2022-08-29T07:33:17.786Z,1.13
2022-08-29T07:35:44.633Z,1.50
2022-08-29T07:38:11.685Z,1.37
2022-08-29T07:40:38.609Z,1.67
2022-08-29T07:43:05.904Z,1.60
2022-08-29T07:45:32.797Z,1.50
2022-08-29T07:50:48.472Z,1.33
2022-08-29T07:53:15.495Z,1.30
2022-08-29T07:55:42.517Z,1.40
2022-08-29T07:58:09.375Z,1.53
2022-08-29T08:00:36.276Z,1.50
2022-08-29T08:03:03.161Z,1.50
2022-08-29T08:05:30.099Z,1.40
2022-08-29T08:07:56.885Z,1.73
2022-08-29T08:10:23.583Z,1.20
2022-08-29T08:12:53.652Z,1.47
2022-08-29T08:15:22.171Z,1.50
2022-08-29T08:17:49.032Z,1.40
2022-08-29T08:20:16.711Z,1.37
2022-08-29T08:22:43.440Z,1.23
2022-08-29T08:25:10.881Z,1.40
2022-08-29T08:27:42.193Z,1.60
2022-08-29T08:30:10.921Z,1.40
2022-08-29T08:32:37.744Z,1.40
2022-08-29T08:35:04.641Z,0.90
2022-08-29T08:37:31.627Z,1.37
2022-08-29T08:39:59.517Z,1.20
2022-08-29T08:42:53.450Z,1.07
2022-08-29T08:45:22.989Z,1.00
2022-08-29T08:47:51.133Z,1.17
2022-08-29T08:50:18.289Z,1.00
2022-08-29T08:53:07.820Z,0.80
2022-08-29T08:55:42.895Z,1.00
2022-08-29T08:58:19.969Z,1.00
2022-08-29T09:00:58.715Z,1.00
2022-08-29T09:03:33.890Z,1.07
2022-08-29T09:06:21.618Z,1.00
2022-08-29T09:09:10.370Z,1.30
2022-08-29T09:11:46.489Z,1.10
2022-08-29T09:14:33.759Z,0.70
2022-08-29T09:17:03.490Z,1.17
2022-08-29T09:19:30.957Z,1.17
2022-08-29T09:22:05.818Z,1.00
2022-08-29T09:24:34.097Z,1.27
2022-08-29T09:27:02.944Z,1.17
2022-08-29T09:29:31.252Z,1.13
2022-08-29T09:32:11.830Z,1.00
2022-08-29T09:35:04.869Z,1.00
2022-08-29T09:37:28.683Z,1.20
2022-08-29T09:42:46.661Z,1.10
2022-08-29T09:45:21.452Z,1.03
2022-08-29T09:47:48.722Z,1.00
2022-08-29T09:50:24.912Z,1.23
2022-08-29T09:52:56.639Z,1.40
2022-08-29T09:55:35.281Z,1.20
2022-08-29T09:58:03.668Z,1.40
2022-08-29T10:00:51.600Z,1.30
2022-08-29T10:03:22.362Z,1.20
2022-08-29T10:05:51.015Z,0.90
2022-08-29T10:08:25.878Z,1.30
2022-08-29T10:10:54.822Z,1.10
2022-08-29T10:13:23.045Z,1.30
2022-08-29T10:16:02.748Z,1.20
2022-08-29T10:21:24.505Z,1.20
2022-08-29T10:23:55.340Z,1.60
2022-08-29T10:26:22.283Z,1.50
2022-08-29T10:32:11.252Z,2.53
2022-08-29T10:34:50.487Z,1.30
2022-08-29T10:37:21.334Z,1.50
2022-08-29T10:39:53.076Z,1.37
2022-08-29T10:42:22.025Z,1.20
2022-08-29T10:45:03.405Z,1.77
2022-08-29T10:47:32.912Z,1.23
2022-08-29T10:50:21.875Z,1.70
2022-08-29T10:53:15.730Z,1.33
2022-08-29T10:55:53.730Z,1.40
2022-08-29T10:58:24.147Z,1.37
2022-08-29T11:00:53.053Z,1.70
2022-08-29T11:06:10.332Z,1.37
2022-08-29T11:08:43.151Z,1.30
2022-08-29T11:11:10.007Z,1.57
2022-08-29T11:13:40.882Z,1.23
2022-08-29T11:16:32.256Z,1.50
2022-08-29T11:19:05.250Z,1.03
2022-08-29T11:21:36.905Z,1.30
2022-08-29T11:24:04.505Z,1.10
2022-08-29T11:26:51.454Z,1.30
2022-08-29T11:29:25.477Z,1.00
2022-08-29T11:32:07.740Z,1.17
2022-08-29T11:34:41.030Z,1.00
2022-08-29T11:37:26.496Z,1.20
2022-08-29T11:39:57.326Z,1.07
2022-08-29T11:45:15.022Z,1.27
2022-08-29T11:48:01.727Z,0.93
2022-08-29T11:50:44.043Z,1.10
2022-08-29T11:53:45.069Z,1.10
2022-08-29T11:56:15.307Z,1.17
2022-08-29T11:58:46.477Z,1.13
2022-08-29T12:01:26.134Z,1.20
2022-08-29T12:03:55.187Z,1.20
2022-08-29T12:06:33.132Z,1.10
2022-08-29T12:09:05.252Z,1.10
2022-08-29T12:12:12.849Z,1.00
2022-08-29T12:14:46.968Z,1.10
2022-08-29T12:17:16.726Z,1.40
2022-08-29T12:19:50.848Z,1.30
2022-08-29T12:22:36.628Z,1.00
2022-08-29T12:25:26.809Z,1.37
2022-08-29T12:28:00.410Z,1.40
2022-08-29T12:30:28.566Z,1.20
2022-08-29T12:32:58.280Z,1.60
2022-08-29T12:38:18.103Z,1.50
2022-08-29T12:40:47.611Z,1.47
2022-08-29T12:43:31.114Z,1.30
2022-08-29T12:45:58.085Z,1.40
2022-08-29T12:48:26.316Z,1.57
2022-08-29T12:50:54.354Z,1.60
2022-08-29T12:53:24.612Z,1.40
2022-08-29T12:56:14.972Z,1.40
2022-08-29T13:01:30.942Z,1.70
2022-08-29T13:04:13.660Z,1.70
2022-08-29T13:06:50.847Z,1.93
2022-08-29T13:09:35.074Z,1.70
2022-08-29T13:12:22.123Z,1.60
2022-08-29T13:17:35.862Z,1.63
2022-08-29T13:20:21.576Z,1.80
2022-08-29T13:22:48.384Z,1.60
2022-08-29T13:25:19.569Z,1.90
2022-08-29T13:27:49.756Z,1.70
2022-08-29T13:30:23.767Z,1.93
2022-08-29T13:35:36.102Z,1.70
2022-08-29T13:38:23.381Z,1.43
2022-08-29T13:40:54.121Z,1.57
2022-08-29T13:43:34.477Z,1.37
2022-08-29T13:46:02.912Z,1.40
2022-08-29T13:48:30.460Z,1.67
2022-08-29T13:53:44.842Z,1.60
2022-08-29T13:56:24.496Z,1.40
2022-08-29T13:58:52.531Z,1.30
2022-08-29T14:01:30.462Z,1.40
2022-08-29T14:04:01.244Z,1.20
2022-08-29T14:06:33.875Z,1.23
2022-08-29T14:09:03.358Z,1.10
2022-08-29T14:11:30.328Z,1.10
2022-08-29T14:13:57.100Z,1.30
2022-08-29T14:16:25.008Z,1.40
2022-08-29T14:18:53.842Z,1.37
2022-08-29T14:21:20.667Z,1.50
2022-08-29T14:23:48.623Z,1.60
2022-08-29T14:26:15.617Z,1.53
2022-08-29T14:28:47.982Z,1.30
2022-08-29T14:31:15.188Z,1.03
2022-08-29T14:33:42.049Z,1.00
2022-08-29T14:36:12.399Z,0.90
2022-08-29T14:38:39.199Z,1.10
2022-08-29T14:43:50.269Z,1.40
2022-08-29T14:46:17.164Z,1.20
2022-08-29T14:48:44.057Z,1.40
2022-08-29T14:51:11.223Z,1.30
2022-08-29T14:53:46.969Z,1.50
2022-08-29T14:56:44.717Z,1.60
2022-08-29T14:59:13.235Z,1.60
2022-08-29T15:01:40.030Z,1.57
2022-08-29T15:04:07.161Z,1.53
2022-08-29T15:06:34.068Z,1.53
2022-08-29T15:09:00.936Z,1.30
2022-08-29T15:11:27.850Z,1.70
2022-08-29T15:13:55.822Z,1.60
2022-08-29T15:16:22.745Z,1.67
2022-08-29T15:19:37.283Z,1.40
2022-08-29T15:21:37.620Z,1.60
2022-08-29T15:24:05.313Z,1.60
2022-08-29T15:26:33.470Z,1.60
2022-08-29T15:29:00.342Z,1.60
2022-08-29T15:31:27.535Z,1.83
2022-08-29T15:33:54.571Z,1.70
2022-08-29T15:36:21.520Z,1.50
2022-08-29T15:38:48.368Z,1.70
2022-08-29T15:41:15.512Z,1.87
2022-08-29T15:43:43.289Z,1.63
2022-08-29T15:46:10.297Z,1.50
2022-08-29T15:48:37.496Z,1.30
2022-08-29T15:51:04.461Z,1.30
2022-08-29T15:56:15.632Z,1.77
2022-08-29T16:01:31.323Z,1.80
2022-08-29T16:03:58.228Z,1.73
2022-08-29T16:06:25.401Z,1.30
2022-08-29T16:08:55.182Z,1.73
2022-08-29T16:11:22.760Z,1.50
2022-08-29T16:13:54.956Z,1.50
2022-08-29T16:16:30.119Z,1.40
2022-08-29T16:18:57.036Z,1.43
2022-08-29T16:21:26.980Z,1.77
2022-08-29T16:23:54.381Z,1.63
2022-08-29T16:26:21.259Z,1.70
2022-08-29T16:28:49.719Z,1.60
2022-08-29T16:31:17.017Z,1.47
2022-08-29T16:33:44.294Z,1.40
2022-08-29T16:38:56.203Z,1.60
2022-08-29T16:41:24.208Z,1.30
2022-08-29T16:43:52.229Z,1.30
2022-08-29T16:46:19.916Z,1.50
2022-08-29T16:48:47.309Z,1.60
2022-08-29T16:51:14.207Z,1.30
2022-08-29T16:53:46.071Z,1.70
2022-08-29T16:56:14.208Z,1.40
2022-08-29T16:59:01.761Z,1.87
2022-08-29T17:01:29.521Z,1.50
2022-08-29T17:03:57.752Z,1.70
2022-08-29T17:06:25.485Z,1.40
2022-08-29T17:08:52.357Z,1.63
2022-08-29T17:11:19.081Z,1.70
2022-08-29T17:13:45.893Z,1.87
2022-08-29T17:16:13.122Z,1.70
2022-08-29T17:18:40.814Z,1.67
2022-08-29T17:21:07.851Z,1.33
2022-08-29T17:23:35.884Z,1.70
2022-08-29T17:26:03.059Z,1.93
2022-08-29T17:28:31.390Z,1.60
2022-08-29T17:30:58.645Z,1.50
2022-08-29T17:33:26.612Z,1.47
2022-08-29T17:35:54.128Z,1.60
2022-08-29T17:38:21.262Z,1.40
2022-08-29T17:40:50.875Z,1.37
2022-08-29T17:43:18.601Z,1.80
2022-08-29T17:45:46.052Z,3.50
2022-08-29T17:48:13.385Z,5.33
2022-08-29T17:50:40.588Z,13.57
2022-08-29T17:53:07.427Z,6.17
2022-08-29T17:55:34.434Z,13.53
2022-08-29T17:58:01.201Z,7.60
2022-08-29T18:00:33.383Z,5.27
2022-08-29T18:03:00.290Z,2.60
2022-08-29T18:05:27.458Z,4.40
2022-08-29T18:07:54.561Z,2.83
2022-08-29T18:10:22.329Z,3.70
2022-08-29T18:12:49.306Z,1.93
2022-08-29T18:15:16.162Z,3.17
2022-08-29T18:17:45.546Z,1.63
2022-08-29T18:20:14.649Z,2.20
2022-08-29T18:22:42.640Z,2.90
2022-08-29T18:25:09.505Z,1.97
2022-08-29T18:27:43.050Z,2.87
2022-08-29T18:30:10.885Z,2.60
2022-08-29T18:32:37.796Z,2.37
2022-08-29T18:35:05.606Z,2.03
2022-08-29T18:37:32.579Z,2.20
2022-08-29T18:40:02.689Z,2.53
2022-08-29T18:42:40.361Z,2.67
2022-08-29T18:45:08.737Z,2.60
2022-08-29T18:47:37.757Z,3.03
2022-08-29T18:50:24.965Z,2.40
2022-08-29T18:52:52.657Z,2.10
2022-08-29T18:55:20.624Z,1.60
2022-08-29T18:57:51.931Z,1.80
2022-08-29T19:00:24.557Z,1.80
2022-08-29T19:02:54.812Z,2.73
2022-08-29T19:05:22.128Z,1.50
2022-08-29T19:07:49.431Z,2.20
2022-08-29T19:10:17.684Z,2.10
2022-08-29T19:12:46.786Z,1.97
2022-08-29T19:15:14.059Z,1.80
2022-08-29T19:17:49.554Z,2.80
2022-08-29T19:20:35.588Z,2.30
2022-08-29T19:23:05.025Z,4.10
2022-08-29T19:25:32.543Z,2.20
2022-08-29T19:28:00.145Z,2.50
2022-08-29T19:30:27.969Z,1.80
2022-08-29T19:32:55.593Z,1.70
2022-08-29T19:35:22.947Z,1.97
2022-08-29T19:37:51.592Z,2.07
2022-08-29T19:40:21.294Z,1.90
2022-08-29T19:42:48.568Z,1.97
2022-08-29T19:45:19.737Z,1.70
2022-08-29T19:47:47.596Z,1.50
2022-08-29T19:50:15.782Z,1.53
2022-08-29T19:52:43.688Z,1.30
2022-08-29T19:55:11.459Z,1.63
2022-08-29T19:57:39.269Z,1.77
2022-08-29T20:00:10.602Z,2.07
2022-08-29T20:02:40.972Z,1.97
2022-08-29T20:05:07.904Z,1.83
2022-08-29T20:07:34.924Z,1.97
2022-08-29T20:10:02.211Z,2.03
2022-08-29T20:12:29.303Z,1.53
2022-08-29T20:14:56.725Z,1.93
2022-08-29T20:17:23.619Z,1.80
2022-08-29T20:19:50.594Z,1.70
2022-08-29T20:22:18.823Z,1.57
2022-08-29T20:24:48.189Z,1.53
2022-08-29T20:27:14.905Z,1.53
2022-08-29T20:29:41.767Z,1.83
2022-08-29T20:32:08.874Z,1.50
2022-08-29T20:34:37.718Z,1.30
2022-08-29T20:37:10.613Z,1.97
2022-08-29T20:39:37.816Z,1.60
2022-08-29T20:42:05.441Z,1.40
2022-08-29T20:44:34.145Z,1.40
2022-08-29T20:47:01.296Z,1.50
2022-08-29T20:49:28.176Z,1.40
2022-08-29T20:51:55.190Z,1.30
2022-08-29T20:54:22.883Z,1.53
2022-08-29T20:56:50.483Z,1.77
2022-08-29T20:59:18.721Z,1.93
2022-08-29T21:01:45.730Z,1.40
2022-08-29T21:04:32.113Z,1.20
2022-08-29T21:07:00.236Z,1.20
2022-08-29T21:09:26.998Z,1.30
2022-08-29T21:11:53.941Z,1.10
2022-08-29T21:17:07.277Z,1.10
2022-08-29T21:19:35.367Z,1.60
2022-08-29T21:22:05.532Z,1.37
2022-08-29T21:24:32.626Z,1.30
2022-08-29T21:26:59.496Z,1.70
2022-08-29T21:29:26.301Z,1.10
2022-08-29T21:31:54.479Z,1.27
2022-08-29T21:34:21.571Z,1.00
2022-08-29T21:36:48.385Z,0.90
2022-08-29T21:39:25.077Z,1.10
2022-08-29T21:41:56.138Z,1.17
2022-08-29T21:44:23.104Z,1.17
2022-08-29T21:46:49.927Z,1.10
2022-08-29T21:49:18.080Z,1.30
2022-08-29T21:51:45.359Z,1.13
2022-08-29T21:54:13.679Z,0.90
2022-08-29T21:56:40.738Z,0.80
2022-08-29T21:59:07.684Z,0.80
2022-08-29T22:01:38.886Z,1.07
2022-08-29T22:06:52.946Z,0.60
2022-08-29T22:12:04.252Z,0.80
2022-08-29T22:14:49.478Z,0.80
2022-08-29T22:17:16.257Z,0.80
2022-08-29T22:19:43.045Z,1.10
2022-08-29T22:24:54.632Z,0.80
2022-08-29T22:27:21.307Z,1.17
2022-08-29T22:29:48.285Z,1.30
2022-08-29T22:32:15.867Z,1.40
2022-08-29T22:34:42.635Z,1.30
2022-08-29T22:37:09.385Z,1.37
2022-08-29T22:39:36.137Z,1.17
2022-08-29T22:42:02.866Z,0.93
2022-08-29T22:47:14.091Z,0.90
2022-08-29T22:49:40.937Z,0.83
2022-08-29T22:52:07.701Z,0.73
2022-08-29T22:54:38.376Z,0.87
2022-08-29T22:57:05.951Z,0.87
2022-08-29T22:59:33.418Z,0.80
2022-08-29T23:02:01.384Z,0.90
2022-08-29T23:04:28.824Z,0.60
2022-08-29T23:09:41.475Z,0.60
2022-08-29T23:12:08.762Z,0.57
2022-08-29T23:14:36.161Z,0.60
2022-08-29T23:17:06.603Z,0.60
2022-08-29T23:19:33.634Z,0.60
2022-08-29T23:22:02.133Z,0.60
2022-08-29T23:24:29.300Z,0.80
2022-08-29T23:26:56.097Z,0.53
2022-08-29T23:29:22.868Z,0.70
2022-08-29T23:31:50.569Z,0.90
2022-08-29T23:37:01.382Z,0.70
2022-08-29T23:42:12.511Z,0.90
2022-08-29T23:44:39.345Z,0.80
2022-08-29T23:47:06.569Z,0.70
2022-08-29T23:49:35.290Z,0.90
2022-08-29T23:52:02.209Z,0.60
2022-08-29T23:54:31.338Z,0.70
2022-08-29T23:56:58.107Z,1.10
2022-08-29T23:59:43.692Z,0.80
